createdAt,value
2017-05-19T00:00:41.789Z,959.95
2017-05-19T00:01:41.989Z,959.95
2017-05-19T00:02:41.788Z,959.92
2017-05-19T00:03:41.786Z,959.95
2017-05-19T00:04:41.788Z,959.9
2017-05-19T00:05:41.780Z,959.9
2017-05-19T00:06:41.778Z,959.91
2017-05-19T00:07:41.777Z,959.91
2017-05-19T00:08:41.776Z,959.94
2017-05-19T00:09:41.772Z,959.94
2017-05-19T00:10:41.771Z,959.93
2017-05-19T00:11:41.770Z,959.91
2017-05-19T00:12:41.768Z,959.88
2017-05-19T00:13:41.767Z,959.9
2017-05-19T00:14:41.765Z,959.93
2017-05-19T00:15:41.762Z,959.94
2017-05-19T00:16:41.759Z,959.93
2017-05-19T00:17:41.757Z,959.91
2017-05-19T00:18:41.760Z,959.94
2017-05-19T00:19:41.753Z,959.91
2017-05-19T00:20:41.752Z,959.91
2017-05-19T00:21:41.751Z,959.91
2017-05-19T00:22:41.750Z,959.95
2017-05-19T00:23:41.746Z,959.92
2017-05-19T00:24:41.744Z,959.95
2017-05-19T00:25:41.744Z,959.95
2017-05-19T00:26:41.742Z,959.94
2017-05-19T00:27:41.739Z,959.96
2017-05-19T00:28:41.738Z,959.98
2017-05-19T00:29:41.737Z,959.99
2017-05-19T00:30:41.733Z,960.01
2017-05-19T00:31:41.731Z,960.02
2017-05-19T00:32:41.732Z,960
2017-05-19T00:33:41.728Z,959.97
2017-05-19T00:34:41.726Z,959.99
2017-05-19T00:35:41.723Z,959.96
2017-05-19T00:36:41.722Z,959.96
2017-05-19T00:37:41.720Z,959.95
2017-05-19T00:38:41.719Z,959.93
2017-05-19T00:39:41.718Z,959.97
2017-05-19T00:40:41.716Z,959.95
2017-05-19T00:41:41.711Z,959.95
2017-05-19T00:42:41.711Z,959.94
2017-05-19T00:43:41.709Z,959.93
2017-05-19T00:44:41.708Z,959.92
2017-05-19T00:45:41.704Z,959.91
2017-05-19T00:46:41.702Z,959.9
2017-05-19T00:47:41.702Z,959.89
2017-05-19T00:48:41.699Z,959.87
2017-05-19T00:49:41.698Z,959.92
2017-05-19T00:50:41.695Z,959.9
2017-05-19T00:51:41.692Z,959.91
2017-05-19T00:52:41.690Z,959.91
2017-05-19T00:53:41.689Z,959.93
2017-05-19T00:54:41.688Z,959.9
2017-05-19T00:55:41.685Z,959.92
2017-05-19T00:56:41.681Z,959.89
2017-05-19T00:57:41.680Z,959.94
2017-05-19T00:58:41.679Z,959.9
2017-05-19T00:59:41.677Z,959.88
2017-05-19T01:00:41.676Z,959.94
2017-05-19T01:01:41.673Z,959.93
2017-05-19T01:02:41.670Z,959.96
2017-05-19T01:03:41.668Z,959.95
2017-05-19T01:04:41.668Z,959.98
2017-05-19T01:05:41.666Z,959.99
2017-05-19T01:06:41.662Z,960.01
2017-05-19T01:07:41.661Z,960.01
2017-05-19T01:08:41.659Z,960.08
2017-05-19T01:09:41.657Z,960.06
2017-05-19T01:10:41.655Z,960.08
2017-05-19T01:11:41.652Z,960.13
2017-05-19T01:12:41.650Z,960.11
2017-05-19T01:13:41.649Z,960.1
2017-05-19T01:14:41.645Z,960.11
2017-05-19T01:15:41.643Z,960.12
2017-05-19T01:16:41.641Z,960.14
2017-05-19T01:17:41.641Z,960.18
2017-05-19T01:18:41.639Z,960.1
2017-05-19T01:19:41.636Z,960.11
2017-05-19T01:20:41.634Z,960.11
2017-05-19T01:21:41.630Z,960.12
2017-05-19T01:22:41.629Z,960.1
2017-05-19T01:23:41.628Z,960.11
2017-05-19T01:24:41.628Z,960.12
2017-05-19T01:25:41.622Z,960.11
2017-05-19T01:26:41.621Z,960.14
2017-05-19T01:27:41.623Z,960.14
2017-05-19T01:28:41.620Z,960.13
2017-05-19T01:29:41.668Z,960.14
2017-05-19T01:30:41.614Z,960.17
2017-05-19T01:31:41.609Z,960.12
2017-05-19T01:32:41.607Z,960.14
2017-05-19T01:33:41.605Z,960.12
2017-05-19T01:34:41.605Z,960.12
2017-05-19T01:35:41.606Z,960.09
2017-05-19T01:36:41.599Z,960.1
2017-05-19T01:37:41.598Z,960.07
2017-05-19T01:38:41.595Z,960.07
2017-05-19T01:39:41.595Z,960.09
2017-05-19T01:40:41.591Z,960.12
2017-05-19T01:41:41.589Z,960.17
2017-05-19T01:42:41.586Z,960.16
2017-05-19T01:43:41.585Z,960.23
2017-05-19T01:44:41.584Z,960.24
2017-05-19T01:45:41.582Z,960.25
2017-05-19T01:46:41.579Z,960.24
2017-05-19T01:47:41.575Z,960.24
2017-05-19T01:48:41.574Z,960.24
2017-05-19T01:49:41.573Z,960.18
2017-05-19T01:50:41.571Z,960.17
2017-05-19T01:51:41.567Z,960.16
2017-05-19T01:52:41.565Z,960.17
2017-05-19T01:53:41.564Z,960.21
2017-05-19T01:54:41.561Z,960.14
2017-05-19T01:55:41.560Z,960.16
2017-05-19T01:56:41.558Z,960.11
2017-05-19T01:57:41.555Z,960.11
2017-05-19T01:58:41.551Z,960.09
2017-05-19T01:59:41.551Z,960.09
2017-05-19T02:00:41.547Z,960.14
2017-05-19T02:01:41.547Z,960.15
2017-05-19T02:02:41.544Z,960.18
2017-05-19T02:03:41.542Z,960.15
2017-05-19T02:04:41.539Z,960.2
2017-05-19T02:05:41.537Z,960.23
2017-05-19T02:06:41.535Z,960.2
2017-05-19T02:07:41.534Z,960.21
2017-05-19T02:08:41.532Z,960.15
2017-05-19T02:09:41.529Z,960.17
2017-05-19T02:10:41.528Z,960.16
2017-05-19T02:11:41.526Z,960.14
2017-05-19T02:12:41.523Z,960.15
2017-05-19T02:13:41.519Z,960.18
2017-05-19T02:14:41.518Z,960.15
2017-05-19T02:15:41.517Z,960.14
2017-05-19T02:16:41.513Z,960.12
2017-05-19T02:17:41.513Z,960.13
2017-05-19T02:18:41.512Z,960.09
2017-05-19T02:19:41.507Z,960.14
2017-05-19T02:20:41.504Z,960.1
2017-05-19T02:21:41.555Z,960.12
2017-05-19T02:22:41.503Z,960.14
2017-05-19T02:23:41.499Z,960.16
2017-05-19T02:24:41.496Z,960.16
2017-05-19T02:25:41.494Z,960.15
2017-05-19T02:26:41.493Z,960.15
2017-05-19T02:27:41.489Z,960.15
2017-05-19T02:28:41.487Z,960.13
2017-05-19T02:29:41.487Z,960.14
2017-05-19T02:30:41.484Z,960.15
2017-05-19T02:31:41.481Z,960.12
2017-05-19T02:32:41.479Z,960.19
2017-05-19T02:33:41.478Z,960.17
2017-05-19T02:34:41.475Z,960.18
2017-05-19T02:35:41.471Z,960.2
2017-05-19T02:36:41.469Z,960.21
2017-05-19T02:37:41.487Z,960.24
2017-05-19T02:38:41.466Z,960.26
2017-05-19T02:39:41.462Z,960.26
2017-05-19T02:40:41.461Z,960.26
2017-05-19T02:41:41.459Z,960.24
2017-05-19T02:42:41.455Z,960.21
2017-05-19T02:43:41.454Z,960.17
2017-05-19T02:44:41.452Z,960.2
2017-05-19T02:45:41.451Z,960.15
2017-05-19T02:46:41.502Z,960.18
2017-05-19T02:47:41.444Z,960.17
2017-05-19T02:48:41.444Z,960.19
2017-05-19T02:49:41.441Z,960.2
2017-05-19T02:50:41.438Z,960.2
2017-05-19T02:51:41.436Z,960.19
2017-05-19T02:52:41.433Z,960.24
2017-05-19T02:53:41.430Z,960.25
2017-05-19T02:54:41.429Z,960.23
2017-05-19T02:55:41.426Z,960.22
2017-05-19T02:56:41.424Z,960.21
2017-05-19T02:57:41.421Z,960.17
2017-05-19T02:58:41.420Z,960.16
2017-05-19T02:59:41.418Z,960.13
2017-05-19T03:00:41.415Z,960.12
2017-05-19T03:01:41.413Z,960.14
2017-05-19T03:02:41.412Z,960.16
2017-05-19T03:03:41.410Z,960.17
2017-05-19T03:04:41.407Z,960.19
2017-05-19T03:05:41.407Z,960.17
2017-05-19T03:06:41.402Z,960.16
2017-05-19T03:07:41.401Z,960.18
2017-05-19T03:08:41.399Z,960.15
2017-05-19T03:09:41.396Z,960.09
2017-05-19T03:10:41.393Z,960.12
2017-05-19T03:11:41.390Z,960.09
2017-05-19T03:12:41.388Z,960.1
2017-05-19T03:13:41.386Z,960.11
2017-05-19T03:14:41.385Z,960.1
2017-05-19T03:15:41.380Z,960.13
2017-05-19T03:16:41.378Z,960.13
2017-05-19T03:17:41.379Z,960.1
2017-05-19T03:18:41.374Z,960.15
2017-05-19T03:19:41.371Z,960.13
2017-05-19T03:20:41.370Z,960.18
2017-05-19T03:21:41.367Z,960.21
2017-05-19T03:22:41.366Z,960.22
2017-05-19T03:23:41.364Z,960.22
2017-05-19T03:24:41.361Z,960.24
2017-05-19T03:25:41.357Z,960.26
2017-05-19T03:26:41.356Z,960.26
2017-05-19T03:27:41.353Z,960.26
2017-05-19T03:28:41.351Z,960.27
2017-05-19T03:29:41.348Z,960.27
2017-05-19T03:30:41.347Z,960.28
2017-05-19T03:31:41.344Z,960.24
2017-05-19T03:32:41.343Z,960.27
2017-05-19T03:33:41.339Z,960.25
2017-05-19T03:34:41.338Z,960.23
2017-05-19T03:35:41.334Z,960.21
2017-05-19T03:36:41.332Z,960.19
2017-05-19T03:37:41.331Z,960.2
2017-05-19T03:38:41.329Z,960.2
2017-05-19T03:39:41.326Z,960.23
2017-05-19T03:40:41.323Z,960.26
2017-05-19T03:41:41.321Z,960.25
2017-05-19T03:42:41.319Z,960.3
2017-05-19T03:43:41.317Z,960.28
2017-05-19T03:44:41.315Z,960.31
2017-05-19T03:45:41.313Z,960.29
2017-05-19T03:46:41.311Z,960.27
2017-05-19T03:47:41.308Z,960.28
2017-05-19T03:48:41.306Z,960.3
2017-05-19T03:49:41.302Z,960.31
2017-05-19T03:50:41.301Z,960.35
2017-05-19T03:51:41.297Z,960.34
2017-05-19T03:52:41.295Z,960.36
2017-05-19T03:53:41.293Z,960.39
2017-05-19T03:54:41.290Z,960.34
2017-05-19T03:55:41.287Z,960.34
2017-05-19T03:56:41.287Z,960.4
2017-05-19T03:57:41.284Z,960.43
2017-05-19T03:58:41.281Z,960.42
2017-05-19T03:59:41.280Z,960.5
2017-05-19T04:00:41.277Z,960.54
2017-05-19T04:01:41.274Z,960.59
2017-05-19T04:02:41.271Z,960.64
2017-05-19T04:03:41.269Z,960.59
2017-05-19T04:04:41.266Z,960.64
2017-05-19T04:05:41.265Z,960.67
2017-05-19T04:06:41.261Z,960.67
2017-05-19T04:07:41.260Z,960.72
2017-05-19T04:08:41.258Z,960.7
2017-05-19T04:09:41.253Z,960.73
2017-05-19T04:10:41.254Z,960.74
2017-05-19T04:11:41.252Z,960.79
2017-05-19T04:12:41.249Z,960.77
2017-05-19T04:13:41.245Z,960.8
2017-05-19T04:14:41.243Z,960.83
2017-05-19T04:15:41.241Z,960.78
2017-05-19T04:16:41.239Z,960.79
2017-05-19T04:17:41.237Z,960.83
2017-05-19T04:18:41.234Z,960.83
2017-05-19T04:19:41.233Z,960.88
2017-05-19T04:20:41.229Z,960.87
2017-05-19T04:21:41.227Z,960.88
2017-05-19T04:22:41.227Z,960.87
2017-05-19T04:23:41.224Z,960.85
2017-05-19T04:24:41.218Z,960.87
2017-05-19T04:25:41.218Z,960.84
2017-05-19T04:26:41.215Z,960.86
2017-05-19T04:27:41.214Z,960.87
2017-05-19T04:28:41.212Z,960.86
2017-05-19T04:29:41.207Z,960.89
2017-05-19T04:30:41.243Z,960.87
2017-05-19T04:31:41.202Z,960.83
2017-05-19T04:32:41.202Z,960.89
2017-05-19T04:33:41.200Z,960.85
2017-05-19T04:34:41.197Z,960.82
2017-05-19T04:35:41.193Z,960.86
2017-05-19T04:36:41.191Z,960.79
2017-05-19T04:37:41.191Z,960.81
2017-05-19T04:38:41.188Z,960.79
2017-05-19T04:39:41.184Z,960.78
2017-05-19T04:40:41.183Z,960.75
2017-05-19T04:41:41.181Z,960.78
2017-05-19T04:42:41.178Z,960.75
2017-05-19T04:43:41.177Z,960.75
2017-05-19T04:44:41.174Z,960.73
2017-05-19T04:45:41.172Z,960.71
2017-05-19T04:46:41.168Z,960.67
2017-05-19T04:47:41.165Z,960.65
2017-05-19T04:48:41.165Z,960.67
2017-05-19T04:49:41.163Z,960.64
2017-05-19T04:50:41.159Z,960.66
2017-05-19T04:51:41.157Z,960.7
2017-05-19T04:52:41.155Z,960.65
2017-05-19T04:53:41.157Z,960.68
2017-05-19T04:54:41.151Z,960.65
2017-05-19T04:55:41.147Z,960.6
2017-05-19T04:56:41.145Z,960.64
2017-05-19T04:57:41.143Z,960.64
2017-05-19T04:58:41.141Z,960.63
2017-05-19T04:59:41.139Z,960.66
2017-05-19T05:00:41.138Z,960.66
2017-05-19T05:01:41.133Z,960.66
2017-05-19T05:02:41.131Z,960.7
2017-05-19T05:03:41.129Z,960.69
2017-05-19T05:04:41.126Z,960.69
2017-05-19T05:05:41.125Z,960.69
2017-05-19T05:06:41.124Z,960.71
2017-05-19T05:07:41.122Z,960.73
2017-05-19T05:08:41.119Z,960.75
2017-05-19T05:09:41.115Z,960.73
2017-05-19T05:10:41.114Z,960.78
2017-05-19T05:11:41.112Z,960.77
2017-05-19T05:12:41.110Z,960.76
2017-05-19T05:13:41.108Z,960.75
2017-05-19T05:14:41.105Z,960.73
2017-05-19T05:15:41.107Z,960.75
2017-05-19T05:16:41.100Z,960.74
2017-05-19T05:17:41.097Z,960.73
2017-05-19T05:18:41.097Z,960.74
2017-05-19T05:19:41.094Z,960.73
2017-05-19T05:20:41.092Z,960.74
2017-05-19T05:21:41.090Z,960.74
2017-05-19T05:22:41.087Z,960.73
2017-05-19T05:23:41.083Z,960.78
2017-05-19T05:24:41.081Z,960.74
2017-05-19T05:25:41.080Z,960.82
2017-05-19T05:26:41.077Z,960.82
2017-05-19T05:27:41.074Z,960.81
2017-05-19T05:28:41.074Z,960.91
2017-05-19T05:29:41.070Z,960.92
2017-05-19T05:30:41.068Z,960.92
2017-05-19T05:31:41.066Z,960.93
2017-05-19T05:32:41.064Z,960.92
2017-05-19T05:33:41.062Z,960.96
2017-05-19T05:34:41.059Z,960.96
2017-05-19T05:35:41.056Z,960.99
2017-05-19T05:36:41.054Z,961.02
2017-05-19T05:37:41.054Z,961.04
2017-05-19T05:38:41.049Z,961.04
2017-05-19T05:39:41.048Z,961.03
2017-05-19T05:40:41.045Z,961.08
2017-05-19T05:41:41.042Z,961.06
2017-05-19T05:42:41.042Z,961.05
2017-05-19T05:43:41.038Z,961.08
2017-05-19T05:44:41.035Z,961.05
2017-05-19T05:45:41.033Z,961.06
2017-05-19T05:46:41.030Z,961.05
2017-05-19T05:47:41.029Z,961.02
2017-05-19T05:48:41.025Z,961.01
2017-05-19T05:49:41.023Z,961.03
2017-05-19T05:50:41.022Z,961.02
2017-05-19T05:51:41.018Z,961.02
2017-05-19T05:52:41.016Z,961.01
2017-05-19T05:53:41.016Z,960.98
2017-05-19T05:54:41.012Z,961
2017-05-19T05:55:41.008Z,960.96
2017-05-19T05:56:41.059Z,960.96
2017-05-19T05:57:41.004Z,960.96
2017-05-19T05:58:41.005Z,960.92
2017-05-19T05:59:41.001Z,960.9
2017-05-19T06:00:40.997Z,960.94
2017-05-19T06:01:40.996Z,960.93
2017-05-19T06:02:40.996Z,960.92
2017-05-19T06:03:40.990Z,960.92
2017-05-19T06:04:40.990Z,960.92
2017-05-19T06:05:40.986Z,960.93
2017-05-19T06:06:40.984Z,960.92
2017-05-19T06:07:40.981Z,960.9
2017-05-19T06:08:40.979Z,960.86
2017-05-19T06:09:40.978Z,960.84
2017-05-19T06:10:40.974Z,960.8
2017-05-19T06:11:40.973Z,960.8
2017-05-19T06:12:40.972Z,960.8
2017-05-19T06:13:40.969Z,960.83
2017-05-19T06:14:40.965Z,960.77
2017-05-19T06:15:40.965Z,960.82
2017-05-19T06:16:40.961Z,960.8
2017-05-19T06:17:40.959Z,960.86
2017-05-19T06:18:40.956Z,960.82
2017-05-19T06:19:40.955Z,960.84
2017-05-19T06:20:40.954Z,960.82
2017-05-19T06:21:40.950Z,960.83
2017-05-19T06:22:40.948Z,960.79
2017-05-19T06:23:40.945Z,960.81
2017-05-19T06:24:40.944Z,960.79
2017-05-19T06:25:40.942Z,960.77
2017-05-19T06:26:40.940Z,960.76
2017-05-19T06:27:40.937Z,960.78
2017-05-19T06:28:40.935Z,960.8
2017-05-19T06:29:40.933Z,960.76
2017-05-19T06:30:40.931Z,960.76
2017-05-19T06:31:40.929Z,960.77
2017-05-19T06:32:40.927Z,960.77
2017-05-19T06:33:40.924Z,960.79
2017-05-19T06:34:40.922Z,960.82
2017-05-19T06:35:40.921Z,960.82
2017-05-19T06:36:40.917Z,960.8
2017-05-19T06:37:40.917Z,960.82
2017-05-19T06:38:40.913Z,960.78
2017-05-19T06:39:40.912Z,960.75
2017-05-19T06:40:40.908Z,960.77
2017-05-19T06:41:40.907Z,960.76
2017-05-19T06:42:40.905Z,960.74
2017-05-19T06:43:40.904Z,960.75
2017-05-19T06:44:40.901Z,960.73
2017-05-19T06:45:40.900Z,960.7
2017-05-19T06:46:40.897Z,960.72
2017-05-19T06:47:40.895Z,960.72
2017-05-19T06:48:40.893Z,960.77
2017-05-19T06:49:40.892Z,960.78
2017-05-19T06:50:40.889Z,960.78
2017-05-19T06:51:40.886Z,960.77
2017-05-19T06:52:40.886Z,960.78
2017-05-19T06:53:40.890Z,960.79
2017-05-19T06:54:40.879Z,960.83
2017-05-19T06:55:40.878Z,960.8
2017-05-19T06:56:40.876Z,960.81
2017-05-19T06:57:40.874Z,960.79
2017-05-19T06:58:40.873Z,960.78
2017-05-19T06:59:40.874Z,960.78
2017-05-19T07:00:40.867Z,960.79
2017-05-19T07:01:40.864Z,960.82
2017-05-19T07:02:40.863Z,960.81
2017-05-19T07:03:40.862Z,960.86
2017-05-19T07:04:40.860Z,960.86
2017-05-19T07:05:40.857Z,960.85
2017-05-19T07:06:40.855Z,960.85
2017-05-19T07:07:40.852Z,960.84
2017-05-19T07:08:40.851Z,960.84
2017-05-19T07:09:40.849Z,960.85
2017-05-19T07:10:40.846Z,960.86
2017-05-19T07:11:40.844Z,960.84
2017-05-19T07:12:40.842Z,960.85
2017-05-19T07:13:40.841Z,960.89
2017-05-19T07:14:40.838Z,960.9
2017-05-19T07:15:40.837Z,960.9
2017-05-19T07:16:40.832Z,960.9
2017-05-19T07:17:40.830Z,960.91
2017-05-19T07:18:40.829Z,960.94
2017-05-19T07:19:40.828Z,960.94
2017-05-19T07:20:40.824Z,960.96
2017-05-19T07:21:40.823Z,960.92
2017-05-19T07:22:40.820Z,960.96
2017-05-19T07:23:40.817Z,960.98
2017-05-19T07:24:40.815Z,960.92
2017-05-19T07:25:40.813Z,960.92
2017-05-19T07:26:40.811Z,960.9
2017-05-19T07:27:40.809Z,960.91
2017-05-19T07:28:40.808Z,960.88
2017-05-19T07:29:40.805Z,960.82
2017-05-19T07:30:40.803Z,960.81
2017-05-19T07:31:40.802Z,960.81
2017-05-19T07:32:40.797Z,960.84
2017-05-19T07:33:40.797Z,960.89
2017-05-19T07:34:40.792Z,960.87
2017-05-19T07:35:40.789Z,960.94
2017-05-19T07:36:40.790Z,960.88
2017-05-19T07:37:40.787Z,960.89
2017-05-19T07:38:40.784Z,960.89
2017-05-19T07:39:40.783Z,960.93
2017-05-19T07:40:40.780Z,960.93
2017-05-19T07:41:40.779Z,960.91
2017-05-19T07:42:40.777Z,960.93
2017-05-19T07:43:40.775Z,960.95
2017-05-19T07:44:40.771Z,960.89
2017-05-19T07:45:40.768Z,960.93
2017-05-19T07:46:40.768Z,960.91
2017-05-19T07:47:40.767Z,960.87
2017-05-19T07:48:40.763Z,960.91
2017-05-19T07:49:40.760Z,960.91
2017-05-19T07:50:40.759Z,960.88
2017-05-19T07:51:40.757Z,960.92
2017-05-19T07:52:40.755Z,960.88
2017-05-19T07:53:40.754Z,960.89
2017-05-19T07:54:40.751Z,960.92
2017-05-19T07:55:40.748Z,960.92
2017-05-19T07:56:40.747Z,960.94
2017-05-19T07:57:40.746Z,960.94
2017-05-19T07:58:40.741Z,960.97
2017-05-19T07:59:40.742Z,960.98
2017-05-19T08:00:40.739Z,960.97
2017-05-19T08:01:40.737Z,960.96
2017-05-19T08:02:40.735Z,960.91
2017-05-19T08:03:40.732Z,960.91
2017-05-19T08:04:40.729Z,960.91
2017-05-19T08:05:40.728Z,960.93
2017-05-19T08:06:40.728Z,960.9
2017-05-19T08:07:40.724Z,960.94
2017-05-19T08:08:40.724Z,960.89
2017-05-19T08:09:40.767Z,960.93
2017-05-19T08:10:40.720Z,960.92
2017-05-19T08:11:40.715Z,960.88
2017-05-19T08:12:40.714Z,960.9
2017-05-19T08:13:40.712Z,960.88
2017-05-19T08:14:40.709Z,960.87
2017-05-19T08:15:40.709Z,960.83
2017-05-19T08:16:40.705Z,960.86
2017-05-19T08:17:40.703Z,960.85
2017-05-19T08:18:40.702Z,960.88
2017-05-19T08:19:40.700Z,960.86
2017-05-19T08:20:40.698Z,960.89
2017-05-19T08:21:40.696Z,960.88
2017-05-19T08:22:40.695Z,960.86
2017-05-19T08:23:40.693Z,960.83
2017-05-19T08:24:40.691Z,960.87
2017-05-19T08:25:40.689Z,960.92
2017-05-19T08:26:40.685Z,960.9
2017-05-19T08:27:40.683Z,960.87
2017-05-19T08:28:40.682Z,960.9
2017-05-19T08:29:40.679Z,960.91
2017-05-19T08:30:40.678Z,960.9
2017-05-19T08:31:40.675Z,960.89
2017-05-19T08:32:40.672Z,960.86
2017-05-19T08:33:40.670Z,960.87
2017-05-19T08:34:40.669Z,960.87
2017-05-19T08:35:40.668Z,960.87
2017-05-19T08:36:40.665Z,960.89
2017-05-19T08:37:40.662Z,960.87
2017-05-19T08:38:40.660Z,960.92
2017-05-19T08:39:40.657Z,960.87
2017-05-19T08:40:40.655Z,960.89
2017-05-19T08:41:40.652Z,960.86
2017-05-19T08:42:40.651Z,960.87
2017-05-19T08:43:40.648Z,960.82
2017-05-19T08:44:40.647Z,960.85
2017-05-19T08:45:40.645Z,960.83
2017-05-19T08:46:40.644Z,960.89
2017-05-19T08:47:40.640Z,960.87
2017-05-19T08:48:40.636Z,960.87
2017-05-19T08:49:40.634Z,960.86
2017-05-19T08:50:40.632Z,960.94
2017-05-19T08:51:40.631Z,960.92
2017-05-19T08:52:40.628Z,960.93
2017-05-19T08:53:40.627Z,960.93
2017-05-19T08:54:40.622Z,961
2017-05-19T08:55:40.621Z,961.03
2017-05-19T08:56:40.619Z,960.98
2017-05-19T08:57:40.620Z,960.99
2017-05-19T08:58:40.616Z,961.03
2017-05-19T08:59:40.613Z,961.06
2017-05-19T09:00:40.610Z,961.12
2017-05-19T09:01:40.609Z,961.13
2017-05-19T09:02:40.607Z,961.11
2017-05-19T09:03:40.603Z,961.14
2017-05-19T09:04:40.601Z,961.1
2017-05-19T09:05:40.600Z,961.17
2017-05-19T09:06:40.597Z,961.16
2017-05-19T09:07:40.596Z,961.19
2017-05-19T09:08:40.593Z,961.19
2017-05-19T09:09:40.594Z,961.18
2017-05-19T09:10:40.588Z,961.23
2017-05-19T09:11:40.587Z,961.29
2017-05-19T09:12:40.585Z,961.3
2017-05-19T09:13:40.582Z,961.31
2017-05-19T09:14:40.581Z,961.34
2017-05-19T09:15:40.578Z,961.32
2017-05-19T09:16:40.632Z,961.35
2017-05-19T09:17:40.574Z,961.33
2017-05-19T09:18:40.572Z,961.34
2017-05-19T09:19:40.572Z,961.32
2017-05-19T09:20:40.567Z,961.4
2017-05-19T09:21:40.565Z,961.31
2017-05-19T09:22:40.564Z,961.36
2017-05-19T09:23:40.562Z,961.36
2017-05-19T09:24:40.559Z,961.31
2017-05-19T09:25:40.558Z,961.34
2017-05-19T09:26:40.554Z,961.32
2017-05-19T09:27:40.552Z,961.38
2017-05-19T09:28:40.552Z,961.42
2017-05-19T09:29:40.548Z,961.45
2017-05-19T09:30:40.547Z,961.43
2017-05-19T09:31:40.543Z,961.47
2017-05-19T09:32:40.541Z,961.5
2017-05-19T09:33:40.540Z,961.49
2017-05-19T09:34:40.538Z,961.54
2017-05-19T09:35:40.535Z,961.56
2017-05-19T09:36:40.534Z,961.62
2017-05-19T09:37:40.532Z,961.63
2017-05-19T09:38:40.528Z,961.66
2017-05-19T09:39:40.528Z,961.63
2017-05-19T09:40:40.524Z,961.71
2017-05-19T09:41:40.522Z,961.71
2017-05-19T09:42:40.520Z,961.69
2017-05-19T09:43:40.519Z,961.73
2017-05-19T09:44:40.517Z,961.71
2017-05-19T09:45:40.513Z,961.67
2017-05-19T09:46:40.512Z,961.67
2017-05-19T09:47:40.509Z,961.71
2017-05-19T09:48:40.506Z,961.7
2017-05-19T09:49:40.503Z,961.7
2017-05-19T09:50:40.503Z,961.69
2017-05-19T09:51:40.501Z,961.75
2017-05-19T09:52:40.499Z,961.75
2017-05-19T09:53:40.494Z,961.75
2017-05-19T09:54:40.492Z,961.75
2017-05-19T09:55:40.491Z,961.76
2017-05-19T09:56:40.489Z,961.79
2017-05-19T09:57:40.487Z,961.82
2017-05-19T09:58:40.485Z,961.81
2017-05-19T09:59:40.483Z,961.76
2017-05-19T10:00:40.480Z,961.81
2017-05-19T10:01:40.480Z,961.83
2017-05-19T10:02:40.476Z,961.83
2017-05-19T10:03:40.475Z,961.82
2017-05-19T10:04:40.470Z,961.81
2017-05-19T10:05:40.470Z,961.88
2017-05-19T10:06:40.469Z,961.86
2017-05-19T10:07:40.465Z,961.85
2017-05-19T10:08:40.463Z,961.93
2017-05-19T10:09:40.460Z,961.9
2017-05-19T10:10:40.459Z,961.93
2017-05-19T10:11:40.456Z,961.95
2017-05-19T10:12:40.454Z,961.9
2017-05-19T10:13:40.452Z,961.93
2017-05-19T10:14:40.452Z,961.95
2017-05-19T10:15:40.446Z,961.97
2017-05-19T10:16:40.444Z,961.97
2017-05-19T10:17:40.443Z,962.02
2017-05-19T10:18:40.444Z,962.06
2017-05-19T10:19:40.438Z,962.1
2017-05-19T10:20:40.436Z,962.11
2017-05-19T10:21:40.434Z,962.13
2017-05-19T10:22:40.432Z,962.17
2017-05-19T10:23:40.429Z,962.17
2017-05-19T10:24:40.427Z,962.18
2017-05-19T10:25:40.425Z,962.19
2017-05-19T10:26:40.423Z,962.21
2017-05-19T10:27:40.420Z,962.24
2017-05-19T10:28:40.425Z,962.3
2017-05-19T10:29:40.416Z,962.34
2017-05-19T10:30:40.413Z,962.34
2017-05-19T10:31:40.411Z,962.37
2017-05-19T10:32:40.412Z,962.36
2017-05-19T10:33:40.406Z,962.36
2017-05-19T10:34:40.406Z,962.35
2017-05-19T10:35:40.403Z,962.37
2017-05-19T10:36:40.401Z,962.39
2017-05-19T10:37:40.397Z,962.39
2017-05-19T10:38:40.396Z,962.43
2017-05-19T10:39:40.394Z,962.43
2017-05-19T10:40:40.390Z,962.47
2017-05-19T10:41:40.388Z,962.49
2017-05-19T10:42:40.386Z,962.49
2017-05-19T10:43:40.384Z,962.51
2017-05-19T10:44:40.381Z,962.55
2017-05-19T10:45:40.379Z,962.55
2017-05-19T10:46:40.377Z,962.56
2017-05-19T10:47:40.374Z,962.56
2017-05-19T10:48:40.373Z,962.56
2017-05-19T10:49:40.371Z,962.56
2017-05-19T10:50:40.368Z,962.6
2017-05-19T10:51:40.364Z,962.61
2017-05-19T10:52:40.363Z,962.66
2017-05-19T10:53:40.361Z,962.68
2017-05-19T10:54:40.360Z,962.7
2017-05-19T10:55:40.357Z,962.66
2017-05-19T10:56:40.352Z,962.68
2017-05-19T10:57:40.351Z,962.7
2017-05-19T10:58:40.349Z,962.72
2017-05-19T10:59:40.345Z,962.69
2017-05-19T11:00:40.345Z,962.73
2017-05-19T11:01:40.343Z,962.74
2017-05-19T11:02:40.339Z,962.82
2017-05-19T11:03:40.337Z,962.87
2017-05-19T11:04:40.334Z,962.9
2017-05-19T11:05:40.333Z,962.91
2017-05-19T11:06:40.330Z,962.96
2017-05-19T11:07:40.328Z,962.96
2017-05-19T11:08:40.326Z,962.96
2017-05-19T11:09:40.323Z,962.97
2017-05-19T11:10:40.320Z,962.99
2017-05-19T11:11:40.317Z,963.01
2017-05-19T11:12:40.364Z,963.06
2017-05-19T11:13:40.312Z,963.06
2017-05-19T11:14:40.310Z,963.16
2017-05-19T11:15:40.309Z,963.21
2017-05-19T11:16:40.304Z,963.2
2017-05-19T11:17:40.303Z,963.2
2017-05-19T11:18:40.299Z,963.21
2017-05-19T11:19:40.297Z,963.23
2017-05-19T11:20:40.295Z,963.18
2017-05-19T11:21:40.292Z,963.21
2017-05-19T11:22:40.291Z,963.2
2017-05-19T11:23:40.288Z,963.2
2017-05-19T11:24:40.284Z,963.2
2017-05-19T11:25:40.281Z,963.23
2017-05-19T11:26:40.280Z,963.2
2017-05-19T11:27:40.277Z,963.26
2017-05-19T11:28:40.276Z,963.25
2017-05-19T11:29:40.271Z,963.26
2017-05-19T11:30:40.277Z,963.25
2017-05-19T11:31:40.269Z,963.28
2017-05-19T11:32:40.265Z,963.26
2017-05-19T11:33:40.263Z,963.25
2017-05-19T11:34:40.262Z,963.28
2017-05-19T11:35:40.259Z,963.33
2017-05-19T11:36:40.254Z,963.36
2017-05-19T11:37:40.258Z,963.39
2017-05-19T11:38:40.278Z,963.36
2017-05-19T11:39:40.264Z,963.37
2017-05-19T11:40:40.246Z,963.36
2017-05-19T11:41:40.243Z,963.31
2017-05-19T11:42:40.266Z,963.33
2017-05-19T11:43:40.261Z,963.23
2017-05-19T11:44:40.311Z,963.23
2017-05-19T11:45:40.253Z,963.23
2017-05-19T11:46:40.255Z,963.3
2017-05-19T11:47:40.255Z,963.38
2017-05-19T11:48:40.248Z,963.48
2017-05-19T11:49:40.250Z,963.52
2017-05-19T11:50:40.249Z,963.6
2017-05-19T11:51:40.243Z,963.6
2017-05-19T11:52:40.242Z,963.65
2017-05-19T11:53:40.237Z,963.68
2017-05-19T11:54:40.220Z,963.73
2017-05-19T11:55:40.206Z,963.69
2017-05-19T11:56:40.232Z,963.73
2017-05-19T11:57:40.228Z,963.77
2017-05-19T11:58:40.223Z,963.81
2017-05-19T11:59:40.225Z,963.77
2017-05-19T12:00:40.197Z,963.68
2017-05-19T12:01:40.222Z,963.74
2017-05-19T12:02:40.212Z,963.69
2017-05-19T12:03:40.200Z,963.73
2017-05-19T12:04:40.197Z,963.74
2017-05-19T12:05:40.186Z,963.76
2017-05-19T12:06:40.206Z,963.8
2017-05-19T12:07:40.199Z,963.84
2017-05-19T12:08:40.198Z,963.93
2017-05-19T12:09:40.169Z,964
2017-05-19T12:10:40.169Z,964.04
2017-05-19T12:11:40.179Z,964.11
2017-05-19T12:12:40.171Z,964.18
2017-05-19T12:13:40.158Z,964.24
2017-05-19T12:14:40.156Z,964.27
2017-05-19T12:15:40.154Z,964.32
2017-05-19T12:16:40.150Z,964.37
2017-05-19T12:17:40.149Z,964.34
2017-05-19T12:18:40.144Z,964.35
2017-05-19T12:19:40.142Z,964.32
2017-05-19T12:20:40.139Z,964.35
2017-05-19T12:21:40.137Z,964.37
2017-05-19T12:22:40.135Z,964.41
2017-05-19T12:23:40.131Z,964.39
2017-05-19T12:24:40.128Z,964.44
2017-05-19T12:25:40.126Z,964.47
2017-05-19T12:26:40.125Z,964.52
2017-05-19T12:27:40.121Z,964.53
2017-05-19T12:28:40.119Z,964.6
2017-05-19T12:29:40.115Z,964.59
2017-05-19T12:30:40.112Z,964.63
2017-05-19T12:31:40.110Z,964.61